AirNav   Everest Fuels
 
 705 users online  

2I3 Rough River State Park Airport
Falls of Rough, Kentucky, USA

GOING TO FALLS OF ROUGH?


FAA INFORMATION EFFECTIVE 21 MAY 2020

Location

FAA Identifier: 2I3
Lat/Long: 37-36-35.3000N 086-30-25.8000W
37-36.588333N 086-30.430000W
37.6098056,-86.5071667
(estimated)
Elevation: 577 ft. / 175.9 m (surveyed)
Variation: 01W (1985)
From city: 3 miles NE of FALLS-OF-ROUGH, KY
Time zone: UTC -5 (UTC -6 during Standard Time)
Zip code: 40119

Airport Operations

Airport use: Open to the public
Activation date: 05/1963
Control tower: no
ARTCC: INDIANAPOLIS CENTER
FSS: LOUISVILLE FLIGHT SERVICE STATION
NOTAMs facility: LOU (NOTAM-D service available)
Attendance: UNATNDD
Wind indicator: lighted
Segmented circle: yes
Lights: ACTVT MIRL RY 2/20; REIL RY 2 & 20 - CTAF. PAPI RY 2 & 20 OPER CONTINUOUSLY.
Beacon: white-green (lighted land airport)
Operates sunset to sunrise.

Airport Communications

CTAF/UNICOM: 122.8
WX AWOS-3PT at JQD (19 nm SW): 132.1 (270-298-7936)

Nearby radio navigation aids

VOR radial/distance  VOR name  Freq  Var
MYSr217/(21.1)MYSTIC VOR108.2001W
FTKr236/31.0FORT KNOX VOR/DME109.6001W
OWBr108/32.3OWENSBORO VOR/DME108.6004W
CCTr070/38.5CENTRAL CITY VORTAC109.8001W
EWOr267/39.5NEW HOPE VOR/DME110.8001E

 
NDB name  Hdg/Dist  Freq  Var  ID
GODMAN233/32.739603WGOI --. --- ..

Airport Services

Parking: tiedowns
Airframe service: NONE
Powerplant service: NONE
Bottled oxygen: NONE
Bulk oxygen: NONE

Runway Information

Runway 2/20

Dimensions: 3200 x 75 ft. / 975 x 23 m
Surface: asphalt, in good condition
Weight bearing capacity: 
Single wheel: 8.0
Runway edge lights: medium intensity
RUNWAY 2  RUNWAY 20
Latitude: 37-36.336833N37-36.841000N
Longitude: 086-30.527167W086-30.332667W
Traffic pattern: leftleft
Markings: basic, in good conditionbasic, in good condition
Visual slope indicator: 2-light PAPI on left (4.00 degrees glide path)4-light PAPI on left (5.00 degrees glide path)
Runway end identifier lights: yesyes
Obstructions: none44 ft. trees, 878 ft. from runway, 144 ft. left of centerline, 15:1 slope to clear

Airport Ownership and Management from official FAA records

Ownership: Publicly-owned
Owner: KY DEPT OF PARKS
2 HUDSON HOLLOW UNIT 1
FRANKFORT, KY 40601
Phone (502) 892-3367
Manager: MICHAEL RICKS, PARK MANAGER
450 LODGE ROAD
FALLS OF ROUGH, KY 40119
Phone 270-257-2311

Airport Operational Statistics

Aircraft operations: avg 25/day *
78% transient general aviation
13% local general aviation
7% military
2% air taxi
* for 12-month period ending 04 December 2019

Additional Remarks

TRANSPORTATION TO PARK LODGE AVAIL 270-257-2311.
FOR CD CTC INDIANAPOLIS ARTCC AT 317-247-2411.

Instrument Procedures

There are no published instrument procedures at 2I3.

Some nearby airports with instrument procedures:

I93 - Breckinridge County Airport (11 nm N)
M20 - Leitchfield-Grayson County Airport (17 nm SE)
KJQD - Ohio County Airport (19 nm SW)
KTEL - Perry County Municipal Airport (26 nm N)
KY8 - Hancock County Airport-Ron Lewis Field (26 nm NW)
 
Loc | Ops | Rwys | IFR | FBO | Links
Com | Nav | Svcs | Stats | Notes
Area around 2I3 (Rough River State Park Airport)
 
Road maps at: MapQuest Bing Google
 
Aerial photo
WARNING: Photo may not be current or correct
Aerial photo of 2I3 (Rough River State Park Airport)
Taken in December 2006

Do you have a better or more recent aerial photo of Rough River State Park Airport that you would like to share? If so, please send us your photo.

 
Sectional chart

 
Airport distance calculator
Flying to Rough River State Park Airport? Find the distance to fly.

From to 2I3

Sunrise and sunset
Times for 27-May-2020
 Local
(UTC-5)
 Zulu
(UTC)
Morning civil twilight04:5909:59
Sunrise05:2910:29
Sunset19:5800:58
Evening civil twilight20:2801:28

Current date and time
Zulu (UTC)  27-May-2020 11:31:18
Local (UTC-5)  27-May-2020 06:31:18
 
METAR
KKY8 
26nm NW 
271115Z AUTO VRB05KT 10SM CLR 21/21 A2997 RMK A01
KFTK 
30nm NE 
271056Z AUTO 10004KT 10SM CLR 19/19 A3000 RMK AO2 SLP157 T01900190
KEKX 
31nm E 
271115Z AUTO 14004KT 10SM SCT120 19/18 A3001 RMK AO2 T01900184
KOWB 
32nm W 
271056Z AUTO 15008KT 10SM OVC050 21/20 A2996 RMK AO2 SLP141 T02110200 TSNO
KM21 
39nm SW 
271115Z AUTO 15007KT 4SM +DZ SCT011 BKN039 OVC055 19/19 A2997 RMK AO2 T01890189
KBWG 
39nm S 
271106Z AUTO 08005KT 7SM -RA BKN042 OVC055 20/17 A2999 RMK AO2 P0001 T02000172
KGLW 
44nm SE 
271115Z AUTO 10005KT 10SM BKN048 OVC065 19/12 A3001 RMK AO2 T01910119
KHNB 
44nm NW 
271056Z AUTO 12007KT 10SM CLR 20/19 A2996 RMK AO2 SLP142 T02000194
K2I0 
45nm W 
271115Z AUTO 16007KT 7SM DZ BKN012 BKN023 OVC049 20/18 A2996 RMK AO2 T02030176
KI19 
46nm NW 
271116Z AUTO 00000KT 10SM SCT050 BKN060 21/19 A3006 RMK AO2 T02130186
TAF
KFTK 
30nm NE 
270900Z 2709/2815 12006KT 9999 SCT025 BKN080 QNH2999INS BECMG 2717/2718 17010G15KT 8000 -SHRA BKN025 OVC045 QNH3000INS BECMG 2806/2807 18009KT 6000 -SHRA SCT010 BKN015 QNH2994INS TEMPO 2811/2814 18020G25KT 4800 -TSRA BKN005CB OVC010 BECMG 2814/2815 19009KT 4800 -SHRA BKN005 OVC015 QNH2998INS TX23/2722Z TN18/2809Z
KOWB 
32nm W 
270520Z 2706/2806 VRB04KT P6SM BKN100 FM271400 15011KT P6SM VCSH BKN025 FM271800 15009KT 6SM -SHRA OVC013 FM280100 12006KT P6SM BKN029 FM280300 14005KT P6SM BKN090
NOTAMs
Click for the latest NOTAMs
NOTAMs are issued by the DoD/FAA and will open in a separate window not controlled by AirNav.

 

 
 

Would you like to see your business listed on this page?

 If your business provides an interesting product or service to pilots, flight crews, aircraft, or users of the Rough River State Park Airport, you should consider listing it here.  To start the listing process, click on the button below
 
Add a business
 

Other Pages about Rough River State Park Airport

Update a link
 
Copyright © AirNav, LLC. All rights reserved. Privacy Policy  Contact